Time;durP1;ratioP1;P1;durP2;ratioP2;P2;SDS_P1;SDS_P2;PMS_P1;PMS_P2;Temp;Humidity;BMP_temperature;BMP_pressure;BME280_temperature;BME280_humidity;BME280_pressure;Samples;Min_cycle;Max_cycle;Signal;HPM_P1;HPM_P2
2021/12/05 00:17:44;;;;;;;20.38;8.85;;;;;;;2.60;100.00;94325.91;5075358;28;20087;-75
2021/12/05 00:23:15;;;;;;;;;;;;;;;2.52;100.00;94338.94;5078560;28;20044;-74
2021/12/05 00:25:47;;;;;;;25.85;8.10;;;;;;;2.38;100.00;94322.69;5078509;28;19932;-74
2021/12/05 00:50:09;;;;;;;19.73;7.82;;;;;;;2.08;100.00;94323.72;5071932;28;20044;-75
2021/12/05 01:06:34;;;;;;;16.92;7.90;;;;;;;2.23;100.00;94289.41;5066297;28;20048;-73
2021/12/05 01:09:11;;;;;;;15.68;7.47;;;;;;;2.25;100.00;94277.16;5074672;28;20044;-75
2021/12/05 01:16:37;;;;;;;17.08;7.97;;;;;;;2.73;100.00;94284.78;5079074;28;20046;-75
2021/12/05 01:19:07;;;;;;;17.52;8.80;;;;;;;2.81;100.00;94276.91;5078656;28;20135;-75
2021/12/05 01:21:39;;;;;;;19.40;7.57;;;;;;;2.83;100.00;94269.78;5073297;28;20071;-75
2021/12/05 01:32:14;;;;;;;12.75;6.85;;;;;;;3.02;100.00;94267.41;5075762;28;20053;-76
2021/12/05 01:39:52;;;;;;;25.55;7.97;;;;;;;3.14;100.00;94276.13;5075233;28;20048;-76
2021/12/05 02:12:02;;;;;;;14.30;6.15;;;;;;;3.78;100.00;94251.50;5075937;28;20047;-76
2021/12/05 02:29:38;;;;;;;15.07;5.82;;;;;;;4.19;100.00;94267.59;5076296;28;20071;-76
2021/12/05 02:32:24;;;;;;;10.57;4.47;;;;;;;4.20;100.00;94280.28;5080301;28;20048;-77
2021/12/05 02:35:02;;;;;;;12.38;4.68;;;;;;;4.22;100.00;94277.50;5079390;28;20473;-76
2021/12/05 02:43:00;;;;;;;10.48;6.25;;;;;;;4.44;100.00;94290.09;5076621;28;20047;-75
2021/12/05 02:45:28;;;;;;;10.57;4.90;;;;;;;4.44;100.00;94266.91;5074515;28;20063;-76
2021/12/05 02:47:55;;;;;;;18.17;8.00;;;;;;;4.58;100.00;94276.16;5081449;28;20036;-76
2021/12/05 02:50:26;;;;;;;22.75;10.77;;;;;;;4.48;100.00;94275.78;5078392;28;20166;-76
2021/12/05 02:52:58;;;;;;;22.25;9.93;;;;;;;4.17;100.00;94279.91;5077269;28;20048;-76
2021/12/05 02:55:38;;;;;;;25.67;12.00;;;;;;;4.17;100.00;94279.91;5078275;28;20040;-76
2021/12/05 03:03:32;;;;;;;20.98;11.77;;;;;;;3.94;100.00;94259.75;5077943;28;20570;-76
2021/12/05 03:06:09;;;;;;;23.00;11.73;;;;;;;4.04;100.00;94264.50;5080792;28;20033;-76
2021/12/05 03:08:36;;;;;;;23.48;12.73;;;;;;;3.97;100.00;94254.97;5082802;28;20528;-76
2021/12/05 03:11:04;;;;;;;27.60;13.88;;;;;;;3.92;100.00;94262.53;5075986;28;20502;-76
2021/12/05 03:13:34;;;;;;;25.85;12.23;;;;;;;3.96;100.00;94268.88;5078314;28;20040;-76
2021/12/05 03:16:03;;;;;;;24.80;11.63;;;;;;;3.84;100.00;94265.34;5078440;28;20036;-77
2021/12/05 03:18:30;;;;;;;30.90;12.73;;;;;;;3.86;100.00;94278.81;5075237;28;20048;-76
2021/12/05 03:20:58;;;;;;;29.85;12.27;;;;;;;3.81;100.00;94281.97;5072928;28;20048;-76
2021/12/05 03:23:26;;;;;;;21.90;11.98;;;;;;;3.79;100.00;94278.03;5075610;28;20048;-76
2021/12/05 03:25:53;;;;;;;27.80;15.23;;;;;;;3.59;100.00;94289.16;5078403;28;20032;-75
2021/12/05 03:28:20;;;;;;;36.53;15.55;;;;;;;3.48;100.00;94258.88;5076857;28;20522;-76
2021/12/05 03:30:47;;;;;;;33.40;16.58;;;;;;;3.70;100.00;94280.03;5078519;28;20097;-76
2021/12/05 03:33:15;;;;;;;35.20;15.18;;;;;;;3.61;100.00;94271.72;5079066;28;20040;-75
2021/12/05 03:35:42;;;;;;;42.38;18.33;;;;;;;3.62;100.00;94291.34;5080248;28;20040;-76
2021/12/05 03:38:09;;;;;;;32.38;16.48;;;;;;;3.43;100.00;94274.13;5083103;28;20043;-75
2021/12/05 03:40:37;;;;;;;39.35;16.95;;;;;;;3.57;100.00;94278.28;5078664;28;20056;-75
2021/12/05 03:43:13;;;;;;;38.72;16.35;;;;;;;3.63;100.00;94285.19;5078751;28;20067;-76
2021/12/05 03:45:42;;;;;;;39.90;17.92;;;;;;;3.68;100.00;94286.38;5082586;28;20040;-76
2021/12/05 03:48:13;;;;;;;31.85;15.80;;;;;;;3.70;100.00;94284.41;5081804;28;20048;-76
2021/12/05 03:50:41;;;;;;;42.17;19.80;;;;;;;3.74;100.00;94280.41;5078566;28;20049;-76
2021/12/05 03:53:11;;;;;;;43.30;18.75;;;;;;;3.73;100.00;94260.81;5081656;28;20105;-76
2021/12/05 03:55:40;;;;;;;38.97;16.77;;;;;;;3.88;100.00;94266.50;5082290;28;20037;-76
2021/12/05 03:58:07;;;;;;;40.13;17.10;;;;;;;3.63;100.00;94249.13;5082883;28;20048;-77
2021/12/05 04:00:39;;;;;;;41.65;17.38;;;;;;;3.73;100.00;94264.19;5083233;28;20052;-76
2021/12/05 04:03:09;;;;;;;39.28;18.33;;;;;;;3.77;100.00;94264.56;5085205;28;20040;-76
2021/12/05 04:05:37;;;;;;;37.53;17.08;;;;;;;3.72;100.00;94256.66;5085443;28;20059;-76
2021/12/05 04:08:10;;;;;;;33.92;16.13;;;;;;;3.69;100.00;94262.19;5078200;28;20052;-76
2021/12/05 04:10:42;;;;;;;28.05;14.52;;;;;;;3.56;100.00;94263.81;5080264;28;20123;-76
2021/12/05 04:13:11;;;;;;;37.58;16.45;;;;;;;3.38;100.00;94255.91;5079580;28;20048;-76
2021/12/05 04:15:38;;;;;;;33.83;16.08;;;;;;;3.51;100.00;94278.28;5088144;28;20131;-76
2021/12/05 04:18:06;;;;;;;34.33;14.02;;;;;;;3.47;100.00;94277.09;5083601;28;20564;-76
2021/12/05 04:20:34;;;;;;;32.75;17.02;;;;;;;3.53;100.00;94281.44;5080892;28;20052;-76
2021/12/05 04:23:04;;;;;;;39.45;16.40;;;;;;;3.59;100.00;94286.59;5082610;28;20051;-76
2021/12/05 04:25:35;;;;;;;34.65;16.55;;;;;;;3.60;100.00;94290.75;5080025;28;20028;-76
2021/12/05 04:28:06;;;;;;;38.60;15.38;;;;;;;3.28;100.00;94297.50;5081908;28;20114;-76
2021/12/05 04:30:33;;;;;;;32.78;15.07;;;;;;;3.20;100.00;94280.47;5075839;28;20066;-76
2021/12/05 04:33:01;;;;;;;31.48;15.20;;;;;;;3.38;100.00;94289.38;5081083;28;20048;-76
2021/12/05 04:35:28;;;;;;;37.95;16.33;;;;;;;3.47;100.00;94290.75;5086851;28;20127;-76
2021/12/05 04:37:55;;;;;;;47.08;18.20;;;;;;;3.37;100.00;94269.78;5078609;28;20542;-76
2021/12/05 04:40:22;;;;;;;37.05;17.33;;;;;;;3.50;100.00;94294.72;5086951;28;20086;-77
2021/12/05 04:42:50;;;;;;;49.15;20.85;;;;;;;3.39;100.00;94293.56;5081746;28;20514;-76
2021/12/05 04:45:21;;;;;;;41.95;18.17;;;;;;;3.51;100.00;94294.53;5083026;28;20063;-76
2021/12/05 04:47:51;;;;;;;47.77;21.20;;;;;;;3.56;100.00;94305.00;5082038;28;20060;-76
2021/12/05 04:50:20;;;;;;;40.80;19.73;;;;;;;3.55;100.00;94307.81;5076120;28;20451;-76
2021/12/05 04:52:48;;;;;;;34.28;16.65;;;;;;;3.40;100.00;94295.13;5082893;28;20061;-76
2021/12/05 04:55:16;;;;;;;34.00;15.70;;;;;;;3.22;100.00;94293.97;5081624;28;20036;-76
2021/12/05 04:57:45;;;;;;;36.53;16.58;;;;;;;2.91;100.00;94301.44;5079030;28;20071;-76
2021/12/05 05:00:17;;;;;;;43.00;16.42;;;;;;;2.72;100.00;94308.13;5061204;28;20106;-77
2021/12/05 05:02:44;;;;;;;31.42;15.38;;;;;;;2.45;100.00;94314.00;5083430;28;20047;-77
2021/12/05 05:05:12;;;;;;;34.28;15.23;;;;;;;2.19;100.00;94308.75;5079841;28;20505;-78
2021/12/05 05:07:42;;;;;;;41.28;17.40;;;;;;;2.25;100.00;94313.13;5080880;28;20036;-77
2021/12/05 05:10:19;;;;;;;43.05;20.30;;;;;;;2.14;100.00;94321.38;5082989;28;20047;-76
2021/12/05 05:12:46;;;;;;;43.63;19.70;;;;;;;2.24;100.00;94332.09;5073581;28;20603;-76
2021/12/05 05:15:17;;;;;;;48.63;21.67;;;;;;;2.24;100.00;94342.38;5077226;28;20032;-77
2021/12/05 05:17:44;;;;;;;47.65;20.65;;;;;;;2.34;100.00;94337.69;5085076;28;20048;-76
2021/12/05 05:20:29;;;;;;;45.63;21.20;;;;;;;2.45;100.00;94334.56;5083997;28;20040;-76
2021/12/05 05:39:04;;;;;;;24.05;13.55;;;;;;;2.24;100.00;94348.31;5079367;28;20424;-77
2021/12/05 05:47:06;;;;;;;35.35;15.63;;;;;;;2.36;100.00;94340.88;5080455;28;20119;-76
2021/12/05 05:52:20;;;;;;;28.67;13.48;;;;;;;2.62;100.00;94334.22;5075674;28;20494;-76
2021/12/05 05:54:49;;;;;;;33.85;15.10;;;;;;;2.72;100.00;94333.84;5080657;28;20501;-76
2021/12/05 05:57:27;;;;;;;27.83;13.98;;;;;;;2.33;100.00;94325.81;5082864;28;20028;-76
2021/12/05 06:05:10;;;;;;;59.08;26.63;;;;;;;2.12;100.00;94282.25;5081216;28;20513;-77
2021/12/05 06:07:42;;;;;;;46.03;24.45;;;;;;;1.97;100.00;94284.97;5084213;28;20043;-77
2021/12/05 06:10:16;;;;;;;59.97;27.42;;;;;;;1.94;100.00;94296.38;5076582;28;20111;-77
2021/12/05 06:12:43;;;;;;;53.50;24.80;;;;;;;1.86;100.00;94296.56;5079641;28;20541;-76
2021/12/05 06:15:12;;;;;;;66.30;28.40;;;;;;;1.94;100.00;94311.00;5072340;28;20043;-77
2021/12/05 06:17:41;;;;;;;60.67;27.00;;;;;;;2.04;100.00;94322.53;5085248;28;20043;-77
2021/12/05 06:20:16;;;;;;;92.15;38.80;;;;;;;1.99;100.00;94319.72;5077243;28;20043;-77
2021/12/05 06:22:47;;;;;;;60.67;23.75;;;;;;;2.11;100.00;94325.13;5076909;28;20494;-77
2021/12/05 06:25:21;;;;;;;57.08;23.90;;;;;;;2.31;100.00;94327.78;5077940;28;20033;-77
2021/12/05 06:27:49;;;;;;;;;;;;;;;2.43;100.00;94331.41;5085117;28;21437;-77
2021/12/05 06:30:31;;;;;;;66.82;33.63;;;;;;;2.20;100.00;94320.63;5077296;28;19934;-77
2021/12/05 06:46:46;;;;;;;48.45;22.92;;;;;;;3.24;100.00;94378.66;5078151;28;20054;-75
2021/12/05 06:49:14;;;;;;;56.65;25.35;;;;;;;3.21;100.00;94379.84;5080410;28;20036;-76
2021/12/05 06:51:41;;;;;;;69.88;27.88;;;;;;;3.20;100.00;94383.41;5080102;28;20041;-77
2021/12/05 06:54:08;;;;;;;55.42;26.90;;;;;;;3.17;100.00;94377.88;5075668;28;20115;-76
2021/12/05 06:56:35;;;;;;;60.20;23.75;;;;;;;3.24;100.00;94371.75;5081469;28;20477;-77
2021/12/05 06:59:02;;;;;;;58.35;23.60;;;;;;;3.37;100.00;94393.34;5081946;28;20033;-77
2021/12/05 07:01:29;;;;;;;47.88;20.60;;;;;;;3.44;100.00;94394.16;5071946;28;20577;-76
2021/12/05 07:04:03;;;;;;;62.70;25.67;;;;;;;3.48;100.00;94395.34;5081107;28;20498;-76
2021/12/05 07:06:31;;;;;;;54.88;23.77;;;;;;;3.64;100.00;94410.41;5083822;28;20119;-76
2021/12/05 07:09:05;;;;;;;58.50;21.52;;;;;;;3.58;100.00;94406.06;5076500;28;20040;-76
2021/12/05 07:11:41;;;;;;;48.72;20.88;;;;;;;3.51;100.00;94394.97;5084038;28;20040;-77
2021/12/05 07:22:23;;;;;;;44.70;17.60;;;;;;;3.67;100.00;94380.88;5073049;28;20044;-77
2021/12/05 07:25:00;;;;;;;50.03;20.55;;;;;;;3.71;100.00;94368.38;5079564;28;20547;-77
2021/12/05 07:43:57;;;;;;;51.10;19.30;;;;;;;3.97;100.00;94383.81;5073345;28;20040;-76
2021/12/05 07:46:24;;;;;;;54.70;20.85;;;;;;;4.08;100.00;94384.22;5078398;28;20417;-77
2021/12/05 07:48:51;;;;;;;42.90;18.55;;;;;;;4.02;100.00;94378.88;5076901;28;20143;-76
2021/12/05 07:56:34;;;;;;;46.95;21.40;;;;;;;4.32;100.00;94370.69;5080784;28;20049;-76
2021/12/05 08:15:31;;;;;;;45.13;20.27;;;;;;;5.26;100.00;94370.25;5064510;28;20040;-76
2021/12/05 08:17:59;;;;;;;44.80;17.17;;;;;;;5.52;100.00;94385.53;5070438;28;20041;-77
2021/12/05 08:20:26;;;;;;;38.92;18.30;;;;;;;5.63;100.00;94385.88;5078300;28;20071;-77
2021/12/05 08:22:54;;;;;;;51.25;20.63;;;;;;;5.57;100.00;94376.38;5075884;28;20437;-76
2021/12/05 08:25:26;;;;;;;58.42;22.13;;;;;;;5.80;100.00;94386.94;5084266;28;20566;-77
2021/12/05 08:28:02;;;;;;;47.28;18.98;;;;;;;5.86;100.00;94380.91;5080389;28;20040;-76
2021/12/05 08:30:33;;;;;;;30.60;14.65;;;;;;;6.04;100.00;94381.97;5084119;28;20127;-74
2021/12/05 08:41:33;;;;;;;23.02;11.35;;;;;;;6.49;100.00;94392.84;5082251;28;20505;-77
2021/12/05 09:23:01;;;;;;;10.15;5.32;;;;;;;8.47;98.01;94335.94;5071855;28;20042;-76
2021/12/05 09:40:04;;;;;;;10.48;4.60;;;;;;;9.12;95.98;94295.84;5079348;28;20048;-80
2021/12/05 10:07:19;;;;;;;12.60;7.38;;;;;;;11.12;83.41;94248.91;5079704;28;20040;-78
2021/12/05 10:10:04;;;;;;;14.00;6.80;;;;;;;11.04;83.14;94241.56;5073400;28;20498;-81
2021/12/05 10:18:20;;;;;;;10.10;5.88;;;;;;;11.30;81.10;94234.72;5075250;28;20028;-76
2021/12/05 10:38:06;;;;;;;9.68;5.15;;;;;;;13.01;70.06;94224.75;5072458;28;20032;-77
2021/12/05 10:40:53;;;;;;;7.95;5.05;;;;;;;13.08;67.37;94232.34;5075896;28;20500;-78
2021/12/05 10:43:23;;;;;;;6.20;4.10;;;;;;;13.28;64.55;94236.81;5076563;28;20120;-78
2021/12/05 10:48:31;;;;;;;7.78;4.70;;;;;;;13.33;65.03;94231.59;5141294;27;20211;-75
2021/12/05 10:50:58;;;;;;;7.50;3.97;;;;;;;12.20;65.95;94226.91;5122717;27;20420;-73
2021/12/05 10:53:39;;;;;;;7.32;4.40;;;;;;;11.94;68.85;94209.56;5118829;27;20154;-76
2021/12/05 10:56:11;;;;;;;6.72;3.90;;;;;;;12.43;68.08;94210.03;5107019;27;20531;-75
2021/12/05 10:58:40;;;;;;;6.10;3.75;;;;;;;12.63;67.38;94200.66;5140988;27;20046;-75
2021/12/05 11:14:08;;;;;;;9.75;5.68;;;;;;;13.80;61.64;94167.69;5076019;27;20566;-74
2021/12/05 11:16:42;;;;;;;6.90;3.75;;;;;;;13.22;64.65;94168.03;5080882;28;20821;-75
2021/12/05 11:19:25;;;;;;;8.23;4.88;;;;;;;13.54;64.52;94170.38;5082740;28;20078;-75
2021/12/05 11:22:02;;;;;;;6.55;4.32;;;;;;;13.66;63.91;94182.38;5089476;28;20090;-76
2021/12/05 11:24:34;;;;;;;57.22;20.35;;;;;;;13.17;63.86;94160.97;5083280;28;20126;-74
2021/12/05 11:27:06;;;;;;;10.52;5.55;;;;;;;12.62;63.92;94149.44;5085274;28;20413;-74
2021/12/05 11:29:59;;;;;;;9.35;4.93;;;;;;;12.71;65.68;94168.00;5082183;28;20048;-74
2021/12/05 11:32:58;;;;;;;7.90;3.83;;;;;;;13.07;64.92;94166.22;5082854;28;20040;-74
2021/12/05 11:35:27;;;;;;;12.55;6.93;;;;;;;12.61;67.55;94153.91;5082965;28;20066;-74
2021/12/05 11:38:06;;;;;;;11.10;5.50;;;;;;;12.59;66.49;94139.53;5078226;28;20047;-74
2021/12/05 11:40:58;;;;;;;8.35;4.68;;;;;;;12.69;66.25;94144.75;5089239;28;20056;-74
2021/12/05 11:43:31;;;;;;;8.77;5.10;;;;;;;12.62;64.09;94139.81;5089363;28;20553;-74
2021/12/05 11:46:20;;;;;;;9.05;5.15;;;;;;;12.75;64.38;94143.72;5087399;28;20064;-74
2021/12/05 11:48:54;;;;;;;7.47;4.47;;;;;;;12.72;65.75;94149.47;5086004;28;20421;-74
2021/12/05 11:51:44;;;;;;;7.47;4.50;;;;;;;13.07;62.48;94142.69;5090423;28;20402;-74
2021/12/05 11:54:24;;;;;;;7.30;4.78;;;;;;;12.37;64.95;94126.69;5083450;28;20119;-74
2021/12/05 11:57:16;;;;;;;8.63;4.55;;;;;;;12.17;66.87;94127.44;5082781;28;20047;-74
2021/12/05 11:59:53;;;;;;;10.45;5.47;;;;;;;12.27;67.91;94114.41;5081542;28;20040;-76
2021/12/05 12:02:22;;;;;;;9.63;4.63;;;;;;;12.43;66.41;94120.47;5084387;28;21101;-77
2021/12/05 12:04:59;;;;;;;13.18;6.22;;;;;;;12.34;67.18;94119.41;5093749;28;20739;-76
2021/12/05 12:07:39;;;;;;;9.82;5.32;;;;;;;12.50;66.82;94114.97;5101229;28;20511;-76
2021/12/05 12:10:19;;;;;;;10.13;4.70;;;;;;;12.36;68.12;94115.47;5088478;28;20429;-77
2021/12/05 12:12:56;;;;;;;11.50;5.80;;;;;;;11.72;67.97;94106.16;5103345;28;20047;-76
2021/12/05 12:15:24;;;;;;;10.50;6.03;;;;;;;11.85;68.26;94104.91;5100683;28;20425;-77
2021/12/05 12:17:56;;;;;;;11.70;6.68;;;;;;;11.62;69.69;94103.50;5088246;28;20071;-77
2021/12/05 12:20:26;;;;;;;13.45;7.80;;;;;;;11.44;70.58;94100.28;5086894;28;20131;-77
2021/12/05 12:22:55;;;;;;;18.95;9.75;;;;;;;11.23;71.12;94104.59;5087007;28;20033;-77
2021/12/05 12:25:27;;;;;;;13.40;7.40;;;;;;;11.70;71.09;94094.41;5064585;28;20052;-76
2021/12/05 12:27:54;;;;;;;14.07;8.27;;;;;;;11.92;69.79;94095.03;5054390;28;20552;-76
2021/12/05 12:30:25;;;;;;;12.02;7.15;;;;;;;11.78;68.83;94088.69;5080479;28;20071;-76
2021/12/05 12:33:13;;;;;;;13.82;8.77;;;;;;;11.80;68.92;94099.66;5079587;28;20044;-75
2021/12/05 12:35:44;;;;;;;14.65;8.68;;;;;;;11.53;69.86;94103.19;5077480;28;20102;-74
2021/12/05 12:38:21;;;;;;;13.70;8.35;;;;;;;11.31;70.51;94094.72;5072880;28;20040;-75
2021/12/05 12:41:02;;;;;;;10.48;6.25;;;;;;;11.71;69.52;94082.94;5071426;28;20080;-75
2021/12/05 12:43:56;;;;;;;16.10;8.43;;;;;;;11.63;70.19;94087.59;5070488;28;20043;-75
2021/12/05 12:46:29;;;;;;;13.57;8.73;;;;;;;11.04;71.46;94087.84;5075112;28;20572;-75
2021/12/05 12:49:16;;;;;;;20.98;11.35;;;;;;;11.00;71.90;94094.56;5066963;28;20041;-75
2021/12/05 12:51:59;;;;;;;8.70;5.47;;;;;;;10.65;72.95;94080.25;5057164;28;20094;-75
2021/12/05 12:54:31;;;;;;;19.45;7.90;;;;;;;10.89;74.90;94099.72;5069402;28;20792;-75
2021/12/05 12:57:07;;;;;;;8.82;5.35;;;;;;;10.75;72.91;94082.94;5071136;28;20037;-76
2021/12/05 12:59:38;;;;;;;14.35;7.82;;;;;;;10.52;73.96;94089.28;5073394;28;20040;-75
2021/12/05 13:10:11;;;;;;;12.27;8.27;;;;;;;10.73;74.46;94066.75;5070098;28;20127;-75
2021/12/05 13:12:41;;;;;;;16.80;8.17;;;;;;;10.69;75.12;94083.94;5062360;28;20053;-75
2021/12/05 13:15:20;;;;;;;14.40;6.75;;;;;;;10.72;74.61;94086.03;5065141;28;20072;-75
2021/12/05 13:17:59;;;;;;;13.93;7.75;;;;;;;10.51;73.68;94078.09;5069929;28;20040;-75
2021/12/05 13:20:43;;;;;;;16.17;8.55;;;;;;;10.36;76.03;94101.38;5068736;28;20048;-75
2021/12/05 13:23:14;;;;;;;13.18;8.15;;;;;;;10.43;76.59;94091.53;5070789;28;20107;-76
2021/12/05 13:26:08;;;;;;;12.43;6.75;;;;;;;10.14;77.60;94089.19;5062406;28;20041;-75
2021/12/05 13:28:44;;;;;;;11.25;6.25;;;;;;;10.11;78.17;94074.03;5069234;28;20039;-75
2021/12/05 13:31:30;;;;;;;12.13;7.68;;;;;;;9.98;78.49;94074.44;5071989;28;20112;-76
2021/12/05 13:34:22;;;;;;;13.15;7.82;;;;;;;9.77;79.12;94070.84;5068826;28;20059;-75
2021/12/05 13:37:09;;;;;;;15.82;8.95;;;;;;;9.61;79.92;94075.09;5054798;28;20124;-75
2021/12/05 13:39:52;;;;;;;18.63;10.77;;;;;;;9.49;80.52;94066.63;5062740;28;20052;-75
2021/12/05 13:42:34;;;;;;;15.75;8.23;;;;;;;9.37;81.55;94079.75;5069328;28;20036;-75
2021/12/05 13:45:05;;;;;;;22.92;10.20;;;;;;;9.34;82.41;94078.41;5072451;28;20041;-76
2021/12/05 13:47:43;;;;;;;11.93;5.70;;;;;;;9.19;83.40;94078.22;5076011;28;20528;-76
2021/12/05 13:50:22;;;;;;;13.00;7.82;;;;;;;9.35;81.97;94085.19;5077716;28;20119;-78
2021/12/05 13:52:52;;;;;;;14.10;6.97;;;;;;;9.06;82.75;94086.38;5085349;28;20043;-78
2021/12/05 13:55:43;;;;;;;9.82;4.57;;;;;;;9.10;82.45;94092.66;5082531;28;20562;-76
2021/12/05 13:58:15;;;;;;;8.77;4.82;;;;;;;8.86;84.96;94090.25;5084957;28;20040;-75
2021/12/05 14:01:01;;;;;;;6.72;4.13;;;;;;;8.34;85.97;94103.44;5075278;28;20054;-74
2021/12/05 14:03:50;;;;;;;10.77;5.25;;;;;;;8.02;88.64;94085.75;5062682;28;20089;-74
2021/12/05 14:06:39;;;;;;;7.63;4.88;;;;;;;7.87;90.26;94098.44;5067914;28;20082;-74
2021/12/05 14:09:26;;;;;;;10.80;5.20;;;;;;;7.66;92.19;94104.03;5069207;28;20050;-75
2021/12/05 14:12:20;;;;;;;10.75;6.40;;;;;;;7.45;94.75;94092.50;5067118;28;20119;-76
2021/12/05 14:14:50;;;;;;;13.27;6.18;;;;;;;7.32;96.50;94092.75;5066408;28;20044;-76
2021/12/05 14:17:29;;;;;;;13.02;6.93;;;;;;;7.08;97.17;94097.94;5074523;28;20050;-74
2021/12/05 14:20:10;;;;;;;15.98;8.23;;;;;;;6.92;98.79;94096.06;5074808;28;20060;-74
2021/12/05 14:22:39;;;;;;;11.77;5.57;;;;;;;6.69;99.79;94084.66;5066336;28;20059;-74
2021/12/05 14:25:12;;;;;;;16.27;5.97;;;;;;;6.52;100.00;94070.84;5064301;28;20052;-74
2021/12/05 14:27:46;;;;;;;13.30;6.88;;;;;;;6.44;100.00;94076.34;5072633;28;20052;-74
2021/12/05 14:30:18;;;;;;;14.30;7.75;;;;;;;6.29;100.00;94074.97;5073688;28;20059;-75
2021/12/05 14:32:47;;;;;;;14.68;6.18;;;;;;;6.20;100.00;94086.63;5062956;28;20416;-74
2021/12/05 14:35:18;;;;;;;12.57;6.35;;;;;;;6.10;100.00;94073.44;5064813;28;20055;-75
2021/12/05 14:37:48;;;;;;;16.83;7.38;;;;;;;6.02;100.00;94087.50;5069423;28;20044;-74
2021/12/05 14:40:35;;;;;;;17.10;7.90;;;;;;;5.95;100.00;94086.75;5064899;28;20804;-75
2021/12/05 14:43:06;;;;;;;13.43;6.57;;;;;;;5.75;100.00;94094.78;5070195;28;20116;-75
2021/12/05 14:45:37;;;;;;;13.90;6.60;;;;;;;5.64;100.00;94077.44;5067495;28;20059;-73
2021/12/05 14:48:07;;;;;;;10.70;5.60;;;;;;;5.67;100.00;94092.50;5076919;28;20089;-73
2021/12/05 14:50:51;;;;;;;14.07;5.97;;;;;;;5.44;100.00;94088.00;5071038;28;20040;-75
2021/12/05 14:53:22;;;;;;;12.32;5.38;;;;;;;5.38;100.00;94094.81;5069200;28;20048;-72
2021/12/05 14:55:54;;;;;;;13.90;5.57;;;;;;;5.31;100.00;94094.91;5066338;28;20127;-73
2021/12/05 14:58:21;;;;;;;9.25;4.45;;;;;;;5.23;100.00;94084.84;5074705;28;20067;-74
2021/12/05 15:00:51;;;;;;;11.57;5.90;;;;;;;5.26;100.00;94101.72;5068264;28;20043;-73
2021/12/05 15:03:23;;;;;;;10.45;5.93;;;;;;;5.24;100.00;94106.28;5069233;28;20044;-74
2021/12/05 15:05:57;;;;;;;16.67;6.10;;;;;;;5.12;100.00;94117.34;5068823;28;20106;-74
2021/12/05 15:08:29;;;;;;;14.52;5.22;;;;;;;4.90;100.00;94088.56;5070793;28;20055;-75
2021/12/05 15:10:59;;;;;;;12.88;5.82;;;;;;;5.04;100.00;94115.06;5069663;28;20055;-74
2021/12/05 15:13:27;;;;;;;13.98;5.63;;;;;;;4.83;100.00;94098.16;5067563;28;20056;-72
2021/12/05 15:15:56;;;;;;;15.75;6.55;;;;;;;4.89;100.00;94101.69;5058198;28;20047;-74
2021/12/05 15:18:29;;;;;;;15.55;6.57;;;;;;;4.99;100.00;94112.31;5059187;28;20075;-75
2021/12/05 15:20:58;;;;;;;18.33;9.05;;;;;;;4.96;100.00;94110.16;5057100;28;20044;-74
2021/12/05 15:23:30;;;;;;;32.22;14.93;;;;;;;4.88;100.00;94110.41;5059039;28;20036;-74
2021/12/05 15:26:00;;;;;;;24.50;14.93;;;;;;;4.81;100.00;94110.50;5071671;28;20119;-73
2021/12/05 15:28:28;;;;;;;15.80;8.10;;;;;;;4.82;100.00;94121.59;5053378;28;20044;-72
2021/12/05 15:30:55;;;;;;;19.00;6.75;;;;;;;4.78;100.00;94124.59;5061315;28;20051;-73
2021/12/05 15:33:25;;;;;;;19.20;8.13;;;;;;;4.61;100.00;94105.50;5066838;28;20506;-73
2021/12/05 15:35:53;;;;;;;15.00;6.55;;;;;;;4.63;100.00;94118.97;5071165;28;20127;-73
2021/12/05 15:38:25;;;;;;;16.42;6.45;;;;;;;4.50;100.00;94098.44;5061749;28;20041;-74
2021/12/05 15:41:17;;;;;;;12.93;5.80;;;;;;;4.52;100.00;94107.56;5063525;28;20049;-74
2021/12/05 15:43:43;;;;;;;19.15;8.02;;;;;;;4.46;100.00;94107.59;5064779;28;20040;-74
2021/12/05 15:46:13;;;;;;;14.77;6.75;;;;;;;4.34;100.00;94099.75;5056287;28;20044;-73
2021/12/05 15:48:45;;;;;;;15.82;7.97;;;;;;;4.36;100.00;94111.44;5059204;28;20040;-74
2021/12/05 15:51:12;;;;;;;15.45;6.88;;;;;;;4.45;100.00;94116.31;5067159;28;20070;-74
2021/12/05 15:53:41;;;;;;;13.77;7.20;;;;;;;4.36;100.00;94118.41;5068819;28;20117;-74
2021/12/05 15:56:14;;;;;;;12.02;5.85;;;;;;;4.29;100.00;94128.75;5065169;28;20036;-74
2021/12/05 15:59:00;;;;;;;10.60;5.90;;;;;;;4.21;100.00;94123.81;5059909;28;20493;-73
2021/12/05 16:01:28;;;;;;;14.43;8.68;;;;;;;4.18;100.00;94135.34;5058800;28;20807;-72
2021/12/05 16:04:03;;;;;;;16.58;7.68;;;;;;;4.12;100.00;94138.75;5066250;28;20468;-74
2021/12/05 16:06:39;;;;;;;14.63;8.10;;;;;;;4.04;100.00;94126.13;5072087;28;20043;-72
2021/12/05 16:09:12;;;;;;;15.63;7.82;;;;;;;3.95;100.00;94133.31;5062804;28;20127;-73
2021/12/05 16:11:39;;;;;;;15.73;7.60;;;;;;;3.97;100.00;94144.19;5072244;28;20490;-74
2021/12/05 16:14:06;;;;;;;18.98;8.80;;;;;;;4.02;100.00;94139.22;5068906;28;20508;-73
2021/12/05 16:16:35;;;;;;;17.33;8.98;;;;;;;4.10;100.00;94139.97;5066879;28;20049;-74
2021/12/05 16:19:07;;;;;;;26.00;7.45;;;;;;;4.11;100.00;94142.34;5072255;28;20040;-77
2021/12/05 16:21:36;;;;;;;19.27;8.25;;;;;;;4.17;100.00;94156.19;5072617;28;20041;-80
2021/12/05 16:24:19;;;;;;;12.85;6.07;;;;;;;4.10;100.00;94156.22;5074802;28;20123;-74
2021/12/05 16:26:48;;;;;;;17.58;7.05;;;;;;;4.07;100.00;94159.22;5072053;28;20119;-74
2021/12/05 16:29:36;;;;;;;15.52;6.22;;;;;;;4.09;100.00;94159.00;5078429;28;20044;-76
2021/12/05 16:32:03;;;;;;;12.02;6.15;;;;;;;3.99;100.00;94160.22;5075121;28;20149;-74
2021/12/05 16:34:32;;;;;;;18.23;7.53;;;;;;;4.02;100.00;94174.50;5080939;28;20101;-74
2021/12/05 16:37:02;;;;;;;14.25;7.03;;;;;;;3.96;100.00;94173.53;5078552;28;20098;-75
2021/12/05 16:39:35;;;;;;;15.25;7.03;;;;;;;3.94;100.00;94177.31;5080534;28;20044;-75
2021/12/05 16:42:12;;;;;;;18.45;8.52;;;;;;;3.92;100.00;94159.47;5069732;28;20519;-74
2021/12/05 16:44:55;;;;;;;24.02;9.45;;;;;;;3.88;100.00;94154.94;5071872;28;20481;-75
2021/12/05 16:47:25;;;;;;;17.00;8.82;;;;;;;3.80;100.00;94150.84;5076894;28;20043;-76
2021/12/05 16:49:54;;;;;;;16.05;8.57;;;;;;;3.86;100.00;94174.97;5076263;28;20042;-75
2021/12/05 16:52:23;;;;;;;21.98;9.35;;;;;;;3.74;100.00;94151.63;5076636;28;20441;-75
2021/12/05 16:55:01;;;;;;;13.32;7.85;;;;;;;3.75;100.00;94171.25;5077920;28;20044;-75
2021/12/05 16:57:39;;;;;;;16.85;8.00;;;;;;;3.83;100.00;94176.97;5082154;28;20115;-75
2021/12/05 17:00:17;;;;;;;18.88;10.50;;;;;;;3.83;100.00;94171.00;5060080;28;20040;-73
2021/12/05 17:02:52;;;;;;;24.35;10.65;;;;;;;3.74;100.00;94172.25;5059428;28;20051;-74
2021/12/05 17:05:26;;;;;;;16.55;8.77;;;;;;;3.76;100.00;94177.97;5060779;28;20044;-73
2021/12/05 17:08:10;;;;;;;16.58;8.50;;;;;;;3.74;100.00;94172.25;5061093;28;20063;-72
2021/12/05 17:10:56;;;;;;;17.80;8.35;;;;;;;3.76;100.00;94175.41;5062351;28;20128;-74
2021/12/05 17:13:24;;;;;;;21.77;9.38;;;;;;;3.78;100.00;94178.56;5060589;28;20044;-74
2021/12/05 17:15:58;;;;;;;23.30;10.73;;;;;;;3.79;100.00;94180.16;5062087;28;20041;-72
2021/12/05 17:18:37;;;;;;;22.98;11.05;;;;;;;3.85;100.00;94187.06;5065955;28;20522;-71
2021/12/05 17:21:19;;;;;;;27.05;10.77;;;;;;;3.95;100.00;94184.06;5067567;28;20513;-73
2021/12/05 17:23:51;;;;;;;20.85;10.60;;;;;;;3.90;100.00;94187.22;5071616;28;20101;-73
2021/12/05 17:26:20;;;;;;;28.25;11.52;;;;;;;3.89;100.00;94190.81;5067284;28;20120;-72
2021/12/05 17:28:51;;;;;;;22.45;9.52;;;;;;;3.91;100.00;94188.81;5066862;28;20060;-72
2021/12/05 17:31:43;;;;;;;15.43;7.05;;;;;;;3.81;100.00;94173.78;5068883;28;20049;-72
2021/12/05 17:34:24;;;;;;;20.58;9.18;;;;;;;4.00;100.00;94185.00;5069437;28;20052;-72
2021/12/05 17:37:04;;;;;;;15.07;7.55;;;;;;;4.01;100.00;94184.00;5065332;28;20051;-72
2021/12/05 17:39:35;;;;;;;16.67;7.75;;;;;;;4.02;100.00;94179.66;5067177;28;20127;-72
2021/12/05 17:42:10;;;;;;;17.90;7.40;;;;;;;4.02;100.00;94185.59;5065010;28;20119;-72
2021/12/05 17:44:39;;;;;;;13.00;5.93;;;;;;;3.92;100.00;94174.94;5070448;28;20051;-72